Time;durP1;ratioP1;P1;durP2;ratioP2;P2;SDS_P1;SDS_P2;PMS_P1;PMS_P2;Temp;Humidity;BMP_temperature;BMP_pressure;BME280_temperature;BME280_humidity;BME280_pressure;Samples;Min_cycle;Max_cycle;Signal;HPM_P1;HPM_P2
2022/09/02 00:01:46;;;;;;;1.45;0.80;;;20.80;78.60;;;;;;5053202;28;20032;-81
2022/09/02 00:04:22;;;;;;;1.33;0.70;;;20.80;78.60;;;;;;5049251;28;20116;-81
2022/09/02 00:06:50;;;;;;;1.08;0.70;;;20.80;78.60;;;;;;5033645;28;20014;-80
2022/09/02 00:09:18;;;;;;;1.42;0.70;;;20.80;78.70;;;;;;5049453;28;20047;-80
2022/09/02 00:11:46;;;;;;;3.78;0.80;;;20.80;78.60;;;;;;5051465;28;20043;-80
2022/09/02 00:14:16;;;;;;;1.60;0.65;;;20.80;78.60;;;;;;5046020;28;20021;-81
2022/09/02 00:16:43;;;;;;;1.30;0.80;;;20.80;78.50;;;;;;5032967;28;20079;-81
2022/09/02 00:19:09;;;;;;;2.28;0.80;;;20.80;78.40;;;;;;5048892;28;20157;-80
2022/09/02 00:21:35;;;;;;;2.10;0.80;;;20.90;78.40;;;;;;5051415;28;20063;-80
2022/09/02 00:24:02;;;;;;;2.45;0.85;;;20.90;78.40;;;;;;5051278;28;20115;-79
2022/09/02 00:26:28;;;;;;;1.10;0.70;;;20.90;78.40;;;;;;5052932;28;20051;-81
2022/09/02 00:28:54;;;;;;;5.20;1.52;;;20.80;78.50;;;;;;5052881;28;20021;-80
2022/09/02 00:31:19;;;;;;;1.60;0.77;;;20.90;78.50;;;;;;5051695;28;20025;-80
2022/09/02 00:33:45;;;;;;;1.45;0.90;;;20.80;78.50;;;;;;5036694;28;20120;-81
2022/09/02 00:36:12;;;;;;;2.30;0.77;;;20.80;78.60;;;;;;5035926;28;20446;-81
2022/09/02 00:38:38;;;;;;;1.50;0.75;;;20.80;78.60;;;;;;5051718;28;20062;-81
2022/09/02 00:41:06;;;;;;;1.67;0.80;;;20.80;78.70;;;;;;5053054;28;20017;-81
2022/09/02 00:43:52;;;;;;;1.80;0.82;;;20.80;78.70;;;;;;5051734;28;20077;-81
2022/09/02 00:46:21;;;;;;;1.75;0.70;;;20.80;78.80;;;;;;5053110;28;20475;-80
2022/09/02 00:49:23;;;;;;;2.38;0.90;;;20.70;78.80;;;;;;5054676;28;20086;-80
2022/09/02 00:52:09;;;;;;;3.17;1.10;;;20.80;78.80;;;;;;5049904;28;20124;-80
2022/09/02 00:54:42;;;;;;;2.25;0.80;;;20.80;78.90;;;;;;5048440;28;20029;-80
2022/09/02 00:57:14;;;;;;;1.08;0.60;;;20.70;78.80;;;;;;5031762;28;20053;-80
2022/09/02 01:00:01;;;;;;;1.45;0.70;;;20.70;78.80;;;;;;5031611;28;20025;-80
2022/09/02 01:02:27;;;;;;;1.10;0.70;;;20.80;78.90;;;;;;5031211;28;20025;-81
2022/09/02 01:04:57;;;;;;;2.95;0.68;;;20.80;78.80;;;;;;5052424;28;20477;-80
2022/09/02 01:07:28;;;;;;;1.08;0.70;;;20.80;78.70;;;;;;5052553;28;20071;-81
2022/09/02 01:09:55;;;;;;;1.65;0.70;;;20.80;78.60;;;;;;5051075;28;20021;-80
2022/09/02 01:12:23;;;;;;;0.88;0.75;;;20.80;78.60;;;;;;5051462;28;20020;-80
2022/09/02 01:14:48;;;;;;;2.05;0.70;;;20.80;78.60;;;;;;5051279;28;20032;-80
2022/09/02 01:17:19;;;;;;;1.05;0.70;;;20.80;78.70;;;;;;5050827;28;20013;-80
2022/09/02 01:19:48;;;;;;;1.92;0.80;;;20.80;78.70;;;;;;5037749;28;20029;-79
2022/09/02 01:22:17;;;;;;;0.88;0.60;;;20.80;78.70;;;;;;5034877;28;20522;-80
2022/09/02 01:24:43;;;;;;;0.93;0.65;;;20.70;78.70;;;;;;5052478;28;20056;-80
2022/09/02 01:27:08;;;;;;;1.17;0.60;;;20.70;78.70;;;;;;5050475;28;20021;-80
2022/09/02 01:29:34;;;;;;;1.15;0.70;;;20.80;78.90;;;;;;5050951;28;20028;-80
2022/09/02 01:32:01;;;;;;;2.28;0.82;;;20.70;78.90;;;;;;5051145;28;20067;-80
2022/09/02 01:34:27;;;;;;;1.10;0.70;;;20.70;78.90;;;;;;5051190;28;20025;-80
2022/09/02 01:36:53;;;;;;;2.22;0.93;;;20.70;78.90;;;;;;5051448;28;20501;-80
2022/09/02 01:39:18;;;;;;;3.00;0.85;;;20.70;78.90;;;;;;5050860;28;20111;-80
2022/09/02 01:41:44;;;;;;;0.95;0.70;;;20.70;78.90;;;;;;5053385;28;20025;-80
2022/09/02 01:44:09;;;;;;;1.83;0.70;;;20.70;79.00;;;;;;5040188;28;20078;-80
2022/09/02 01:46:35;;;;;;;0.93;0.60;;;20.70;79.00;;;;;;5054602;28;20414;-80
2022/09/02 01:49:01;;;;;;;1.73;0.70;;;20.70;79.00;;;;;;5054573;28;20023;-80
2022/09/02 01:51:26;;;;;;;1.40;0.60;;;20.70;79.00;;;;;;5054907;28;20021;-80
2022/09/02 01:53:52;;;;;;;1.02;0.65;;;20.70;78.90;;;;;;5038530;28;20017;-80
2022/09/02 01:56:17;;;;;;;1.42;0.70;;;20.70;78.80;;;;;;5036338;28;20025;-80
2022/09/02 01:58:43;;;;;;;1.38;0.77;;;20.70;78.70;;;;;;5034685;28;20035;-80
2022/09/02 02:01:09;;;;;;;1.23;0.70;;;20.70;78.70;;;;;;5043457;28;20483;-81
2022/09/02 02:03:35;;;;;;;1.35;0.80;;;20.80;78.70;;;;;;5049506;28;20032;-80
2022/09/02 02:06:06;;;;;;;1.05;0.60;;;20.70;78.70;;;;;;5049414;28;20013;-80
2022/09/02 02:08:32;;;;;;;1.20;0.70;;;20.70;78.80;;;;;;5054517;28;20021;-80
2022/09/02 02:10:57;;;;;;;0.95;0.70;;;20.70;78.80;;;;;;5037265;28;20028;-80
2022/09/02 02:13:23;;;;;;;0.85;0.70;;;20.70;78.90;;;;;;5050526;28;20021;-80
2022/09/02 02:15:49;;;;;;;0.90;0.70;;;20.70;78.90;;;;;;5054666;28;20036;-80
2022/09/02 02:18:16;;;;;;;1.38;0.77;;;20.70;79.00;;;;;;5055409;28;20025;-80
2022/09/02 02:20:41;;;;;;;0.70;0.68;;;20.70;79.00;;;;;;5055581;28;20013;-80
2022/09/02 02:23:07;;;;;;;2.60;0.90;;;20.60;79.00;;;;;;5055693;28;20036;-80
2022/09/02 02:25:33;;;;;;;0.77;0.60;;;20.60;79.30;;;;;;5054276;28;20031;-80
2022/09/02 02:27:58;;;;;;;1.45;0.70;;;20.70;79.10;;;;;;5055729;28;20462;-80
2022/09/02 02:30:24;;;;;;;0.93;0.60;;;20.70;79.10;;;;;;5054967;28;20021;-80
2022/09/02 02:32:49;;;;;;;0.70;0.60;;;20.60;79.10;;;;;;5055420;28;20020;-80
2022/09/02 02:35:17;;;;;;;1.58;0.77;;;20.60;79.10;;;;;;5050556;28;20052;-81
2022/09/02 02:37:44;;;;;;;0.63;0.63;;;20.60;79.10;;;;;;5043721;28;20021;-80
2022/09/02 02:40:11;;;;;;;2.40;0.75;;;20.60;79.10;;;;;;5051918;28;20546;-80
2022/09/02 02:42:38;;;;;;;1.60;0.70;;;20.60;79.00;;;;;;5053948;28;20418;-80
2022/09/02 02:45:08;;;;;;;0.77;0.60;;;20.70;79.00;;;;;;5054132;28;20466;-81
2022/09/02 02:47:38;;;;;;;1.33;0.77;;;20.70;78.90;;;;;;5055285;28;20363;-80
2022/09/02 02:50:07;;;;;;;1.25;0.70;;;20.70;78.90;;;;;;5049642;28;20360;-80
2022/09/02 02:52:32;;;;;;;0.90;0.68;;;20.70;78.80;;;;;;5052815;28;20048;-80
2022/09/02 02:54:58;;;;;;;1.17;0.70;;;20.70;78.80;;;;;;5052902;28;20499;-80
2022/09/02 02:57:23;;;;;;;1.40;0.65;;;20.70;78.90;;;;;;5053571;28;20082;-81
2022/09/02 02:59:49;;;;;;;1.02;0.60;;;20.60;78.80;;;;;;5053173;28;20029;-80
2022/09/02 03:02:16;;;;;;;1.30;0.80;;;20.70;79.00;;;;;;5053703;28;20066;-80
2022/09/02 03:04:41;;;;;;;0.90;0.75;;;20.60;79.00;;;;;;5053448;28;20029;-80
2022/09/02 03:07:07;;;;;;;1.08;0.77;;;20.60;79.00;;;;;;5053386;28;20013;-80
2022/09/02 03:09:33;;;;;;;0.68;0.60;;;20.60;79.10;;;;;;5070973;28;20017;-80
2022/09/02 03:11:59;;;;;;;0.82;0.65;;;20.60;79.10;;;;;;5053317;28;20111;-80
2022/09/02 03:14:25;;;;;;;0.70;0.60;;;20.60;79.10;;;;;;5053620;28;20020;-81
2022/09/02 03:16:51;;;;;;;0.93;0.50;;;20.50;79.20;;;;;;5054813;28;20506;-80
2022/09/02 03:19:16;;;;;;;1.00;0.60;;;20.60;79.20;;;;;;5054024;28;20021;-80
2022/09/02 03:21:41;;;;;;;1.85;0.60;;;20.60;79.20;;;;;;5054291;28;20024;-81
2022/09/02 03:24:10;;;;;;;0.70;0.70;;;20.50;79.20;;;;;;5052403;28;20502;-81
2022/09/02 03:26:35;;;;;;;0.93;0.70;;;20.60;79.20;;;;;;5052747;28;20028;-81
2022/09/02 03:29:01;;;;;;;1.02;0.50;;;20.60;79.20;;;;;;5053649;28;20025;-80
2022/09/02 03:31:28;;;;;;;1.80;0.70;;;20.60;79.20;;;;;;5052790;28;20024;-80
2022/09/02 03:33:53;;;;;;;1.75;0.73;;;20.60;79.10;;;;;;5052771;28;20029;-82
2022/09/02 03:36:27;;;;;;;0.73;0.57;;;20.60;79.10;;;;;;5054200;28;20143;-80
2022/09/02 03:38:53;;;;;;;0.60;0.60;;;20.60;79.00;;;;;;5046225;28;20080;-79
2022/09/02 03:41:19;;;;;;;1.33;0.60;;;20.60;78.90;;;;;;5049914;28;20029;-80
2022/09/02 03:43:45;;;;;;;0.93;0.70;;;20.60;78.80;;;;;;5051737;28;20056;-81
2022/09/02 03:46:12;;;;;;;0.63;0.60;;;20.60;79.00;;;;;;5053644;28;20036;-80
2022/09/02 03:48:38;;;;;;;1.23;0.80;;;20.60;78.90;;;;;;5053929;28;20021;-80
2022/09/02 03:51:04;;;;;;;1.35;0.80;;;20.60;79.00;;;;;;5053123;28;20502;-80
2022/09/02 03:53:30;;;;;;;1.08;0.70;;;20.60;79.00;;;;;;5054555;28;20025;-80
2022/09/02 03:55:55;;;;;;;1.63;0.60;;;20.60;79.10;;;;;;5054596;28;20067;-80
2022/09/02 03:58:22;;;;;;;0.75;0.60;;;20.50;79.20;;;;;;5056340;28;20021;-80
2022/09/02 04:00:52;;;;;;;1.00;0.60;;;20.60;79.20;;;;;;5056214;28;20008;-82
2022/09/02 04:03:19;;;;;;;0.60;0.60;;;20.60;79.20;;;;;;5060172;28;20024;-81
2022/09/02 04:05:47;;;;;;;0.80;0.50;;;20.50;79.20;;;;;;5059054;28;20124;-81
2022/09/02 04:08:12;;;;;;;1.55;0.70;;;20.50;79.20;;;;;;5055193;28;20427;-82
2022/09/02 04:10:38;;;;;;;0.95;0.70;;;20.60;79.30;;;;;;5059381;28;20090;-81
2022/09/02 04:13:03;;;;;;;0.70;0.50;;;20.50;79.30;;;;;;5059642;28;20031;-83
2022/09/02 04:15:29;;;;;;;1.38;0.70;;;20.50;79.30;;;;;;5053453;28;20017;-81
2022/09/02 04:17:55;;;;;;;1.50;0.63;;;20.50;79.30;;;;;;5055559;28;20588;-81
2022/09/02 04:20:21;;;;;;;1.33;0.73;;;20.50;79.30;;;;;;5052889;28;20017;-81
2022/09/02 04:22:47;;;;;;;0.88;0.65;;;20.50;79.30;;;;;;5051488;28;20025;-80
2022/09/02 04:25:13;;;;;;;0.80;0.55;;;20.50;79.20;;;;;;5045405;28;20028;-81
2022/09/02 04:27:39;;;;;;;1.08;0.60;;;20.60;79.10;;;;;;5047180;28;20060;-81
2022/09/02 04:30:06;;;;;;;1.13;0.60;;;20.50;79.00;;;;;;5045146;28;20507;-81
2022/09/02 04:32:32;;;;;;;1.13;0.80;;;20.60;79.10;;;;;;5050963;28;20033;-80
2022/09/02 04:34:58;;;;;;;0.57;0.50;;;20.60;79.10;;;;;;5049730;28;20044;-80
2022/09/02 04:37:23;;;;;;;1.00;0.77;;;20.60;79.20;;;;;;5049949;28;20089;-80
2022/09/02 04:39:49;;;;;;;1.58;0.73;;;20.60;79.10;;;;;;5049995;28;20033;-80
2022/09/02 04:42:14;;;;;;;0.63;0.50;;;20.50;79.10;;;;;;5050826;28;20048;-80
2022/09/02 04:44:40;;;;;;;0.80;0.65;;;20.50;79.10;;;;;;5050874;28;20035;-80
2022/09/02 04:47:05;;;;;;;1.13;0.70;;;20.50;79.20;;;;;;5050632;28;20108;-79
2022/09/02 04:49:32;;;;;;;1.40;0.68;;;20.50;79.20;;;;;;5050449;28;20064;-80
2022/09/02 04:51:59;;;;;;;1.42;0.70;;;20.50;79.20;;;;;;5051444;28;20039;-78
2022/09/02 04:54:24;;;;;;;1.08;0.70;;;20.50;79.20;;;;;;5051903;28;20028;-80
2022/09/02 04:56:50;;;;;;;0.98;0.70;;;20.50;79.30;;;;;;5050218;28;20025;-80
2022/09/02 04:59:15;;;;;;;0.93;0.80;;;20.50;79.20;;;;;;5051987;28;20035;-81
2022/09/02 05:01:41;;;;;;;1.33;0.68;;;20.50;79.30;;;;;;5050736;28;20474;-81
2022/09/02 05:04:09;;;;;;;1.05;0.60;;;20.50;79.20;;;;;;5051178;28;20017;-84
2022/09/02 05:06:36;;;;;;;0.85;0.65;;;20.50;79.30;;;;;;5048421;28;20021;-81
2022/09/02 05:09:03;;;;;;;1.10;0.50;;;20.50;79.30;;;;;;5042723;28;20048;-80
2022/09/02 05:11:30;;;;;;;0.95;0.60;;;20.50;79.20;;;;;;5044785;28;20021;-80
2022/09/02 05:13:58;;;;;;;1.27;0.70;;;20.50;79.10;;;;;;5043330;28;20029;-80
2022/09/02 05:16:29;;;;;;;0.95;0.68;;;20.50;79.00;;;;;;5044595;28;20083;-78
2022/09/02 05:18:56;;;;;;;0.98;0.73;;;20.50;79.00;;;;;;5043875;28;20025;-80
2022/09/02 05:21:22;;;;;;;1.25;0.60;;;20.50;78.90;;;;;;5045818;28;20029;-80
2022/09/02 05:23:49;;;;;;;1.00;0.68;;;20.60;78.30;;;;;;5043813;28;20032;-80
2022/09/02 05:26:16;;;;;;;8.02;1.65;;;20.60;78.20;;;;;;5041354;28;20025;-79
2022/09/02 05:28:42;;;;;;;2.75;0.80;;;20.50;78.00;;;;;;5044165;28;20309;-80
2022/09/02 05:31:13;;;;;;;3.33;0.90;;;20.60;78.10;;;;;;5045121;28;20104;-80
2022/09/02 05:33:40;;;;;;;;;;;20.50;78.00;;;;;;5047040;28;20033;-80
2022/09/02 05:36:12;;;;;;;3.38;0.70;;;20.50;78.00;;;;;;5061131;28;19908;-81
2022/09/02 05:38:42;;;;;;;4.40;1.20;;;20.50;78.20;;;;;;5043853;28;20031;-80
2022/09/02 05:41:10;;;;;;;6.43;1.10;;;20.50;78.10;;;;;;5045221;28;20123;-80
2022/09/02 05:43:37;;;;;;;4.10;1.05;;;20.50;77.90;;;;;;5044607;28;20431;-80
2022/09/02 05:46:08;;;;;;;6.38;1.08;;;20.60;77.90;;;;;;5046720;28;20025;-80
2022/09/02 05:51:19;;;;;;;1.98;0.70;;;20.50;77.90;;;;;;5046597;28;20798;-80
2022/09/02 05:53:44;;;;;;;2.50;0.68;;;20.60;78.00;;;;;;5045152;28;20021;-80
2022/09/02 05:56:10;;;;;;;5.95;0.90;;;20.60;78.00;;;;;;5044474;28;20017;-81
2022/09/02 05:58:36;;;;;;;5.35;1.27;;;20.50;77.90;;;;;;5044772;28;20025;-80
2022/09/02 06:01:10;;;;;;;3.33;0.90;;;20.60;78.00;;;;;;5044125;28;20021;-80
2022/09/02 06:03:36;;;;;;;5.90;1.10;;;20.60;77.90;;;;;;5045463;28;20017;-80
2022/09/02 06:06:03;;;;;;;5.70;1.00;;;20.60;77.90;;;;;;5046235;28;20029;-81
2022/09/02 06:08:29;;;;;;;5.13;0.88;;;20.70;77.70;;;;;;5044523;28;20745;-81
2022/09/02 06:10:54;;;;;;;2.78;0.90;;;20.70;77.60;;;;;;5044673;28;20078;-80
2022/09/02 06:13:21;;;;;;;4.63;0.95;;;20.80;77.50;;;;;;5045586;28;20067;-80
2022/09/02 06:15:50;;;;;;;1.73;0.88;;;20.80;77.50;;;;;;5044533;28;20119;-80
2022/09/02 06:18:16;;;;;;;2.25;0.90;;;20.80;78.00;;;;;;5046027;28;20021;-79
2022/09/02 06:20:44;;;;;;;2.85;0.90;;;20.80;77.50;;;;;;5044483;28;20025;-80
2022/09/02 06:23:10;;;;;;;4.45;0.95;;;20.80;77.50;;;;;;5051958;28;20493;-81
2022/09/02 06:25:37;;;;;;;3.95;0.90;;;20.80;77.50;;;;;;5060581;28;20526;-81
2022/09/02 06:28:03;;;;;;;1.33;0.80;;;20.80;77.50;;;;;;5059892;28;20151;-81
2022/09/02 06:30:29;;;;;;;1.15;0.75;;;20.80;77.50;;;;;;5060277;28;20030;-81
2022/09/02 06:32:54;;;;;;;2.03;0.80;;;20.80;77.40;;;;;;5059782;28;20043;-80
2022/09/02 06:35:20;;;;;;;3.72;0.90;;;20.80;77.30;;;;;;5061201;28;20048;-81
2022/09/02 06:37:46;;;;;;;3.70;1.08;;;20.80;77.70;;;;;;5059786;28;20338;-81
2022/09/02 06:40:13;;;;;;;1.20;0.70;;;20.80;77.10;;;;;;5057912;28;20017;-80
2022/09/02 06:42:38;;;;;;;1.67;0.73;;;20.80;77.00;;;;;;5057357;28;20037;-80
2022/09/02 06:45:04;;;;;;;3.30;0.85;;;20.90;77.10;;;;;;5056256;28;20111;-80
2022/09/02 06:47:30;;;;;;;1.55;0.77;;;20.90;76.90;;;;;;5055121;28;20872;-79
2022/09/02 06:49:56;;;;;;;1.85;0.80;;;20.90;77.00;;;;;;5054710;28;20027;-80
2022/09/02 06:52:22;;;;;;;4.82;1.17;;;20.90;76.80;;;;;;5048884;28;20472;-80
2022/09/02 06:54:48;;;;;;;1.75;0.85;;;21.00;76.70;;;;;;5049411;28;20484;-80
2022/09/02 06:57:14;;;;;;;2.25;0.80;;;21.00;76.50;;;;;;5049008;28;20029;-80
2022/09/02 06:59:39;;;;;;;2.70;0.80;;;21.10;76.30;;;;;;5047350;28;20039;-81
2022/09/02 07:02:05;;;;;;;4.93;0.90;;;21.10;76.30;;;;;;5048066;28;20468;-81
2022/09/02 07:07:15;;;;;;;1.67;0.80;;;21.10;76.20;;;;;;5049460;28;20129;-81
2022/09/02 07:09:41;;;;;;;1.45;0.75;;;21.10;76.20;;;;;;5047037;28;20112;-80
2022/09/02 07:12:07;;;;;;;2.42;0.80;;;21.10;76.10;;;;;;5047504;28;20023;-80
2022/09/02 07:14:39;;;;;;;1.88;0.77;;;21.00;75.90;;;;;;5047588;28;20407;-81
2022/09/02 07:17:06;;;;;;;2.00;0.93;;;21.10;76.10;;;;;;5047517;28;20024;-80
2022/09/02 07:19:31;;;;;;;2.10;0.85;;;21.20;76.00;;;;;;5046676;28;20483;-80
2022/09/02 07:21:57;;;;;;;2.38;0.80;;;21.20;75.80;;;;;;5046787;28;20051;-81
2022/09/02 07:24:23;;;;;;;1.70;0.75;;;21.20;75.80;;;;;;5046709;28;20021;-81
2022/09/02 07:26:49;;;;;;;2.55;1.00;;;21.20;75.70;;;;;;5046690;28;20029;-80
2022/09/02 07:29:15;;;;;;;2.40;0.80;;;21.30;75.60;;;;;;5046326;28;20350;-80
2022/09/02 07:31:44;;;;;;;2.05;0.88;;;21.30;75.50;;;;;;5046393;28;20078;-80
2022/09/02 07:34:11;;;;;;;1.25;0.80;;;21.30;75.50;;;;;;5046701;28;20029;-80
2022/09/02 07:36:37;;;;;;;1.85;0.80;;;21.30;75.50;;;;;;5047314;28;20032;-79
2022/09/02 07:39:05;;;;;;;2.30;0.82;;;21.30;75.50;;;;;;5046363;28;20400;-81
2022/09/02 07:41:30;;;;;;;2.22;0.82;;;21.40;75.40;;;;;;5046924;28;20043;-79
2022/09/02 07:43:56;;;;;;;1.35;0.80;;;21.50;75.30;;;;;;5046205;28;20391;-80
2022/09/02 07:46:22;;;;;;;1.63;0.80;;;21.40;75.00;;;;;;5046387;28;20115;-80
2022/09/02 07:48:50;;;;;;;1.75;0.70;;;21.50;74.90;;;;;;5045626;28;20048;-80
2022/09/02 07:51:18;;;;;;;2.05;0.80;;;21.50;74.70;;;;;;5046003;28;20041;-81
2022/09/02 07:53:44;;;;;;;1.80;0.80;;;21.50;74.60;;;;;;5047684;28;20021;-80
2022/09/02 07:56:12;;;;;;;2.63;1.00;;;21.50;74.60;;;;;;5046321;28;20388;-80
2022/09/02 07:58:39;;;;;;;2.17;0.90;;;21.60;74.40;;;;;;5045728;28;20739;-79
2022/09/02 08:01:04;;;;;;;1.85;0.80;;;21.50;74.30;;;;;;5046560;28;20029;-80
2022/09/02 08:03:30;;;;;;;1.38;0.68;;;21.50;74.30;;;;;;5046718;28;20365;-80
2022/09/02 08:05:56;;;;;;;1.40;0.90;;;21.50;74.10;;;;;;5046357;28;20028;-80
2022/09/02 08:08:22;;;;;;;2.17;0.90;;;21.60;74.20;;;;;;5045068;28;20024;-80
2022/09/02 08:10:49;;;;;;;2.15;0.80;;;21.60;74.30;;;;;;5045091;28;20032;-80
2022/09/02 08:13:14;;;;;;;1.00;0.80;;;21.60;73.90;;;;;;5047494;28;20516;-80
2022/09/02 08:15:40;;;;;;;1.35;0.80;;;21.60;73.90;;;;;;5045041;28;20571;-80
2022/09/02 08:18:06;;;;;;;1.63;0.90;;;21.60;73.80;;;;;;5047098;28;20388;-80
2022/09/02 08:20:32;;;;;;;0.95;0.70;;;21.60;73.70;;;;;;5045682;28;20067;-80
2022/09/02 08:22:58;;;;;;;1.95;1.02;;;21.70;73.90;;;;;;5047025;28;20021;-81
2022/09/02 08:25:24;;;;;;;3.88;1.10;;;21.70;73.90;;;;;;5046941;28;20032;-80
2022/09/02 08:27:52;;;;;;;2.00;1.02;;;21.70;74.00;;;;;;5047543;28;20025;-80
2022/09/02 08:30:18;;;;;;;1.65;0.90;;;21.70;74.00;;;;;;5046766;28;20020;-80
2022/09/02 08:32:43;;;;;;;2.47;1.05;;;21.80;73.90;;;;;;5045180;28;20028;-80
2022/09/02 08:35:09;;;;;;;1.90;0.90;;;21.80;73.60;;;;;;5045162;28;20078;-80
2022/09/02 08:37:36;;;;;;;1.70;0.80;;;21.80;73.50;;;;;;5044856;28;20024;-81
2022/09/02 08:40:05;;;;;;;1.90;0.85;;;21.90;73.50;;;;;;5046722;28;20055;-80
2022/09/02 08:42:34;;;;;;;2.17;1.10;;;21.90;73.20;;;;;;5046159;28;20059;-80
2022/09/02 08:45:24;;;;;;;2.88;1.00;;;21.90;73.20;;;;;;5045736;28;20028;-80
2022/09/02 08:48:09;;;;;;;1.20;0.90;;;21.90;73.20;;;;;;5045123;28;20028;-80
2022/09/02 08:50:37;;;;;;;2.55;0.90;;;21.90;73.00;;;;;;5059641;28;20267;-82
2022/09/02 08:53:17;;;;;;;2.25;0.80;;;21.90;73.60;;;;;;5059696;28;20033;-81
2022/09/02 08:55:55;;;;;;;1.40;0.93;;;21.90;72.90;;;;;;5058134;28;20029;-81
2022/09/02 08:58:27;;;;;;;1.58;1.00;;;21.90;73.10;;;;;;5056773;28;20079;-81
2022/09/02 09:01:08;;;;;;;1.92;0.90;;;21.90;73.10;;;;;;5056200;28;20025;-81
2022/09/02 09:03:56;;;;;;;2.20;1.10;;;21.90;73.00;;;;;;5055899;28;20017;-81
2022/09/02 09:06:53;;;;;;;1.40;0.90;;;21.90;72.90;;;;;;5054386;28;20036;-81
2022/09/02 09:09:43;;;;;;;2.10;0.90;;;22.00;73.10;;;;;;5032619;28;20047;-80
2022/09/02 09:12:33;;;;;;;1.23;0.85;;;21.90;73.20;;;;;;5053314;28;20029;-80
2022/09/02 09:15:04;;;;;;;;;;;22.00;73.40;;;;;;5052164;28;20495;-81
2022/09/02 09:17:56;;;;;;;3.03;1.10;;;22.00;73.40;;;;;;5046516;28;20368;-80
2022/09/02 09:20:25;;;;;;;1.75;0.82;;;22.00;73.10;;;;;;5045704;28;20025;-81
2022/09/02 09:22:58;;;;;;;1.90;1.15;;;22.00;72.90;;;;;;5045735;28;20027;-80
2022/09/02 09:25:30;;;;;;;1.75;1.00;;;22.10;72.90;;;;;;5045524;28;20093;-80
2022/09/02 09:27:56;;;;;;;2.00;1.00;;;22.10;72.80;;;;;;5045434;28;20021;-81
2022/09/02 09:30:22;;;;;;;1.90;1.10;;;22.10;72.60;;;;;;5044966;28;20021;-80
2022/09/02 09:32:53;;;;;;;1.65;0.90;;;22.10;72.70;;;;;;5045345;28;20017;-80
2022/09/02 09:35:20;;;;;;;2.50;1.30;;;22.10;72.80;;;;;;5045537;28;20397;-80
2022/09/02 09:37:53;;;;;;;2.22;0.98;;;22.10;72.80;;;;;;5046067;28;20044;-80
2022/09/02 09:40:22;;;;;;;1.88;1.17;;;22.10;72.90;;;;;;5044584;28;20036;-80
2022/09/02 09:43:12;;;;;;;1.52;1.00;;;22.10;72.70;;;;;;5044846;28;20017;-79
2022/09/02 09:45:45;;;;;;;1.40;0.90;;;22.10;72.90;;;;;;5045093;28;20044;-80
2022/09/02 09:48:29;;;;;;;1.58;1.10;;;22.10;73.30;;;;;;5044862;28;20029;-81
2022/09/02 09:50:54;;;;;;;1.95;1.05;;;22.10;72.90;;;;;;5045836;28;20571;-80
2022/09/02 09:53:23;;;;;;;1.33;1.00;;;22.10;73.00;;;;;;5044931;28;20166;-80
2022/09/02 09:56:19;;;;;;;1.75;0.98;;;22.10;72.90;;;;;;5046432;28;20681;-80
2022/09/02 09:58:47;;;;;;;1.48;1.00;;;22.10;73.00;;;;;;5043726;28;20033;-79
2022/09/02 10:01:29;;;;;;;2.05;1.10;;;22.00;72.90;;;;;;5045088;28;20094;-80
2022/09/02 10:04:07;;;;;;;1.45;0.90;;;22.00;72.90;;;;;;5047765;28;20043;-80
2022/09/02 10:06:33;;;;;;;2.45;0.90;;;22.10;72.90;;;;;;5048436;28;20531;-80
2022/09/02 10:08:59;;;;;;;1.08;0.85;;;22.10;72.80;;;;;;5048847;28;20100;-80
2022/09/02 10:11:28;;;;;;;1.40;0.90;;;22.10;72.60;;;;;;5048410;28;20044;-80
2022/09/02 10:14:05;;;;;;;1.63;0.98;;;22.10;72.50;;;;;;5048278;28;20483;-79
2022/09/02 10:16:41;;;;;;;1.27;0.98;;;22.20;72.50;;;;;;5047814;28;20446;-80
2022/09/02 10:19:21;;;;;;;2.45;1.10;;;22.20;72.50;;;;;;5047854;28;20021;-80
2022/09/02 10:22:30;;;;;;;2.40;1.10;;;22.20;72.30;;;;;;5048022;28;20021;-80
2022/09/02 10:25:20;;;;;;;;;;;22.10;72.50;;;;;;5048203;28;20470;-80
2022/09/02 10:27:56;;;;;;;1.40;0.90;;;22.10;72.50;;;;;;5047637;28;19947;-80
2022/09/02 10:30:23;;;;;;;3.25;1.02;;;22.10;72.60;;;;;;5047234;28;20431;-80
2022/09/02 10:33:09;;;;;;;1.92;1.10;;;22.10;72.60;;;;;;5047540;28;20394;-79
2022/09/02 10:35:35;;;;;;;1.73;0.95;;;22.10;72.70;;;;;;5048477;28;20063;-80
2022/09/02 10:38:25;;;;;;;1.02;0.80;;;22.10;72.50;;;;;;5047603;28;20480;-79
2022/09/02 10:41:14;;;;;;;1.85;1.00;;;22.10;72.70;;;;;;5047466;28;20028;-79
2022/09/02 10:43:58;;;;;;;1.70;1.30;;;22.10;72.60;;;;;;5044125;28;20045;-80
2022/09/02 10:46:25;;;;;;;1.88;1.00;;;22.10;72.70;;;;;;5048858;28;20021;-80
2022/09/02 10:49:23;;;;;;;1.85;1.10;;;22.10;72.60;;;;;;5046825;28;20479;-81
2022/09/02 10:52:14;;;;;;;1.73;0.93;;;22.10;72.50;;;;;;5047497;28;20099;-80
2022/09/02 10:55:07;;;;;;;1.52;1.00;;;22.10;72.70;;;;;;5048155;28;20037;-80
2022/09/02 10:57:42;;;;;;;1.45;0.85;;;22.10;72.60;;;;;;5048754;28;20029;-81
2022/09/02 11:00:17;;;;;;;2.38;1.10;;;22.10;72.30;;;;;;5046648;28;20025;-79
2022/09/02 11:02:48;;;;;;;1.63;0.90;;;22.20;72.30;;;;;;5047257;28;20035;-80
2022/09/02 11:05:28;;;;;;;1.98;0.90;;;22.20;72.20;;;;;;5046787;28;20028;-79
2022/09/02 11:08:11;;;;;;;2.05;1.10;;;22.20;72.20;;;;;;5047087;28;20032;-80
2022/09/02 11:10:46;;;;;;;1.50;1.10;;;22.20;72.10;;;;;;5059991;28;20029;-81
2022/09/02 11:13:25;;;;;;;1.50;1.10;;;22.20;72.30;;;;;;5061321;28;20021;-81
2022/09/02 11:15:56;;;;;;;1.65;1.00;;;22.20;72.30;;;;;;5059585;28;20033;-81
2022/09/02 11:18:31;;;;;;;;;;;22.10;72.40;;;;;;5059051;28;20745;-81
2022/09/02 11:21:09;;;;;;;1.48;1.00;;;22.10;72.40;;;;;;5074048;28;19905;-81
2022/09/02 11:23:44;;;;;;;1.40;1.00;;;22.10;72.50;;;;;;5056798;28;20032;-81
2022/09/02 11:26:20;;;;;;;1.33;0.90;;;22.10;72.60;;;;;;5058305;28;20025;-80
2022/09/02 11:29:03;;;;;;;2.03;1.15;;;22.00;72.50;;;;;;5056696;28;20025;-81
2022/09/02 11:31:39;;;;;;;2.15;1.08;;;22.10;72.60;;;;;;5055127;28;20067;-81
2022/09/02 11:34:16;;;;;;;2.17;1.10;;;22.00;72.60;;;;;;5055580;28;20128;-80
2022/09/02 11:36:42;;;;;;;1.33;0.90;;;22.00;72.50;;;;;;5049717;28;20432;-81
2022/09/02 11:39:21;;;;;;;1.45;0.93;;;22.10;72.50;;;;;;5048672;28;20082;-80
2022/09/02 11:41:52;;;;;;;1.38;1.00;;;22.00;72.60;;;;;;5047039;28;20399;-81
2022/09/02 11:44:45;;;;;;;2.10;1.00;;;22.10;72.70;;;;;;5047278;28;20601;-80
2022/09/02 11:47:39;;;;;;;2.15;1.00;;;22.10;72.60;;;;;;5046519;28;20120;-80
2022/09/02 11:50:20;;;;;;;1.25;0.90;;;22.10;72.50;;;;;;5047566;28;20021;-80
2022/09/02 11:52:57;;;;;;;1.10;0.90;;;22.10;72.40;;;;;;5047713;28;20044;-79
2022/09/02 11:55:39;;;;;;;1.85;1.08;;;22.10;72.30;;;;;;5046657;28;20043;-80
2022/09/02 11:58:05;;;;;;;1.48;0.93;;;22.20;72.20;;;;;;5046464;28;20864;-80
2022/09/02 12:00:55;;;;;;;1.23;1.08;;;22.10;72.20;;;;;;5046785;28;20056;-80
2022/09/02 12:03:25;;;;;;;1.15;0.93;;;22.10;72.30;;;;;;5047395;28;20040;-81
2022/09/02 12:06:06;;;;;;;1.60;1.00;;;22.10;72.40;;;;;;5047781;28;20037;-80
2022/09/02 12:08:33;;;;;;;2.42;1.20;;;22.10;72.50;;;;;;5046001;28;20167;-81
2022/09/02 12:11:03;;;;;;;1.52;0.95;;;22.10;72.50;;;;;;5046361;28;20024;-80
2022/09/02 12:13:42;;;;;;;2.45;1.30;;;22.00;72.50;;;;;;5046250;28;20039;-80
2022/09/02 12:16:22;;;;;;;2.45;1.10;;;22.00;72.50;;;;;;5046016;28;20108;-80
2022/09/02 12:18:54;;;;;;;2.45;1.20;;;22.00;72.40;;;;;;5045371;28;20427;-79
2022/09/02 12:21:21;;;;;;;2.45;1.00;;;22.00;72.70;;;;;;5045589;28;20945;-80
2022/09/02 12:23:55;;;;;;;1.17;1.00;;;22.00;72.80;;;;;;5047188;28;20021;-80
2022/09/02 12:26:27;;;;;;;2.53;1.10;;;21.90;72.60;;;;;;5044828;28;20445;-80
2022/09/02 12:29:29;;;;;;;1.52;1.00;;;21.90;72.70;;;;;;5045180;28;20057;-80
2022/09/02 12:31:55;;;;;;;1.55;0.90;;;21.90;73.10;;;;;;5045637;28;20079;-80
2022/09/02 12:34:23;;;;;;;1.38;1.00;;;21.90;72.90;;;;;;5041194;28;20116;-81
2022/09/02 12:36:57;;;;;;;1.20;1.00;;;21.90;72.90;;;;;;5039303;28;20162;-80
2022/09/02 12:39:22;;;;;;;1.58;1.00;;;21.90;72.80;;;;;;5044927;28;20376;-80
2022/09/02 12:42:20;;;;;;;1.20;1.00;;;21.90;72.70;;;;;;5043450;28;20021;-80
2022/09/02 12:45:03;;;;;;;1.55;1.00;;;21.90;72.60;;;;;;5043638;28;20037;-80
2022/09/02 12:47:35;;;;;;;1.30;0.93;;;21.90;72.50;;;;;;5041210;28;20025;-80
2022/09/02 12:50:09;;;;;;;2.33;1.10;;;21.90;72.50;;;;;;5045800;28;20047;-80
2022/09/02 12:52:34;;;;;;;0.98;0.90;;;21.90;72.60;;;;;;5044707;28;20029;-80
2022/09/02 12:55:25;;;;;;;2.03;0.90;;;21.90;72.60;;;;;;5045230;28;20021;-80
2022/09/02 12:57:53;;;;;;;;;;;21.90;72.70;;;;;;5034275;28;20065;-80
2022/09/02 13:00:28;;;;;;;1.50;0.90;;;21.90;72.70;;;;;;5038433;28;19944;-80
2022/09/02 13:03:12;;;;;;;1.58;1.10;;;21.80;73.00;;;;;;5046444;28;20021;-80
2022/09/02 13:05:52;;;;;;;1.15;1.00;;;21.80;72.90;;;;;;5044288;28;20151;-80
2022/09/02 13:08:27;;;;;;;1.88;1.20;;;21.80;73.10;;;;;;5034371;28;20376;-81
2022/09/02 13:11:13;;;;;;;1.73;1.10;;;21.80;73.30;;;;;;5045686;28;20028;-80